createdAt,value
2018-05-06T00:00:09.569Z,1019.26
2018-05-06T00:01:09.564Z,1019.27
2018-05-06T00:02:09.556Z,1019.24
2018-05-06T00:03:09.552Z,1019.24
2018-05-06T00:04:09.553Z,1019.26
2018-05-06T00:05:09.548Z,1019.25
2018-05-06T00:06:09.540Z,1019.29
2018-05-06T00:07:09.536Z,1019.26
2018-05-06T00:08:09.533Z,1019.24
2018-05-06T00:09:09.527Z,1019.25
2018-05-06T00:10:09.529Z,1019.25
2018-05-06T00:11:09.524Z,1019.19
2018-05-06T00:12:09.523Z,1019.21
2018-05-06T00:13:09.515Z,1019.19
2018-05-06T00:14:09.508Z,1019.14
2018-05-06T00:15:09.509Z,1019.16
2018-05-06T00:16:09.499Z,1019.15
2018-05-06T00:17:09.494Z,1019.18
2018-05-06T00:18:09.494Z,1019.14
2018-05-06T00:19:09.492Z,1019.12
2018-05-06T00:20:09.482Z,1019.13
2018-05-06T00:21:09.478Z,1019.08
2018-05-06T00:22:09.478Z,1019.11
2018-05-06T00:23:09.474Z,1019.08
2018-05-06T00:24:09.471Z,1019.07
2018-05-06T00:25:09.465Z,1019.09
2018-05-06T00:26:09.456Z,1019.07
2018-05-06T00:27:09.454Z,1019.07
2018-05-06T00:28:09.450Z,1019.09
2018-05-06T00:29:09.444Z,1019.05
2018-05-06T00:30:09.446Z,1019.04
2018-05-06T00:31:09.444Z,1019.02
2018-05-06T00:32:09.436Z,1019.07
2018-05-06T00:33:09.436Z,1019.06
2018-05-06T00:34:09.423Z,1019.02
2018-05-06T00:35:09.419Z,1019.04
2018-05-06T00:36:09.419Z,1019.03
2018-05-06T00:37:09.414Z,1019.06
2018-05-06T00:38:09.406Z,1019.04
2018-05-06T00:39:09.402Z,1019.03
2018-05-06T00:40:09.398Z,1019.03
2018-05-06T00:41:09.393Z,1019.03
2018-05-06T00:42:09.394Z,1019.07
2018-05-06T00:43:09.390Z,1019.03
2018-05-06T00:44:09.457Z,1019.06
2018-05-06T00:45:09.381Z,1019.02
2018-05-06T00:46:09.373Z,1019.06
2018-05-06T00:47:09.367Z,1019.05
2018-05-06T00:48:09.364Z,1019.08
2018-05-06T00:49:09.359Z,1019.04
2018-05-06T00:50:09.358Z,1019.04
2018-05-06T00:51:09.354Z,1019.04
2018-05-06T00:52:09.346Z,1019.05
2018-05-06T00:53:09.341Z,1019.06
2018-05-06T00:54:09.341Z,1019.04
2018-05-06T00:55:09.336Z,1019.00
2018-05-06T00:56:09.334Z,1019.00
2018-05-06T00:57:09.329Z,1019.00
2018-05-06T00:58:09.319Z,1019.02
2018-05-06T00:59:09.315Z,1018.97
2018-05-06T01:00:09.310Z,1018.97
2018-05-06T01:01:09.305Z,1019.00
2018-05-06T01:02:09.305Z,1019.01
2018-05-06T01:03:09.302Z,1018.96
2018-05-06T01:04:09.297Z,1018.98
2018-05-06T01:05:09.293Z,1018.99
2018-05-06T01:06:09.282Z,1018.95
2018-05-06T01:07:09.278Z,1018.93
2018-05-06T01:08:09.279Z,1018.97
2018-05-06T01:09:09.273Z,1018.97
2018-05-06T01:10:09.266Z,1018.94
2018-05-06T01:11:09.263Z,1018.96
2018-05-06T01:12:09.257Z,1018.99
2018-05-06T01:13:09.251Z,1018.98
2018-05-06T01:14:09.251Z,1018.95
2018-05-06T01:15:09.248Z,1018.97
2018-05-06T01:16:09.244Z,1019.06
2018-05-06T01:17:09.237Z,1019.09
2018-05-06T01:18:09.229Z,1018.98
2018-05-06T01:19:09.224Z,1019.00
2018-05-06T01:20:09.219Z,1019.07
2018-05-06T01:21:09.218Z,1019.04
2018-05-06T01:22:09.213Z,1019.09
2018-05-06T01:23:09.209Z,1019.09
2018-05-06T01:24:09.201Z,1019.16
2018-05-06T01:25:09.195Z,1019.09
2018-05-06T01:26:09.196Z,1019.11
2018-05-06T01:27:09.190Z,1019.11
2018-05-06T01:28:09.188Z,1019.12
2018-05-06T01:29:09.183Z,1019.12
2018-05-06T01:30:09.172Z,1019.11
2018-05-06T01:31:09.169Z,1019.08
2018-05-06T01:32:09.163Z,1019.12
2018-05-06T01:33:09.157Z,1019.10
2018-05-06T01:34:09.163Z,1019.13
2018-05-06T01:35:09.155Z,1019.14
2018-05-06T01:36:09.149Z,1019.17
2018-05-06T01:37:09.143Z,1019.14
2018-05-06T01:38:09.134Z,1019.08
2018-05-06T01:39:09.130Z,1019.12
2018-05-06T01:40:09.131Z,1019.06
2018-05-06T01:41:09.124Z,1019.07
2018-05-06T01:42:09.115Z,1019.06
2018-05-06T01:43:09.110Z,1019.02
2018-05-06T01:44:09.107Z,1019.06
2018-05-06T01:45:09.101Z,1019.03
2018-05-06T01:46:09.102Z,1018.99
2018-05-06T01:47:09.096Z,1019.01
2018-05-06T01:48:09.094Z,1018.95
2018-05-06T01:49:09.089Z,1018.98
2018-05-06T01:50:09.079Z,1018.99
2018-05-06T01:51:09.072Z,1018.97
2018-05-06T01:52:09.068Z,1018.98
2018-05-06T01:53:09.064Z,1019.01
2018-05-06T01:54:09.063Z,1019.01
2018-05-06T01:55:09.058Z,1018.97
2018-05-06T01:56:09.048Z,1018.97
2018-05-06T01:57:09.047Z,1018.98
2018-05-06T01:58:09.043Z,1019.00
2018-05-06T01:59:09.125Z,1019.02
2018-05-06T02:00:09.033Z,1019.01
2018-05-06T02:01:09.028Z,1019.01
2018-05-06T02:02:09.019Z,1019.01
2018-05-06T02:03:09.014Z,1019.02
2018-05-06T02:04:09.011Z,1019.04
2018-05-06T02:05:09.004Z,1019.05
2018-05-06T02:06:09.003Z,1019.02
2018-05-06T02:07:08.998Z,1019.08
2018-05-06T02:08:08.994Z,1019.07
2018-05-06T02:09:08.988Z,1019.08
2018-05-06T02:10:08.979Z,1019.11
2018-05-06T02:11:08.975Z,1019.09
2018-05-06T02:12:08.975Z,1019.09
2018-05-06T02:13:08.969Z,1019.08
2018-05-06T02:14:08.960Z,1019.09
2018-05-06T02:15:08.954Z,1019.08
2018-05-06T02:16:08.950Z,1019.08
2018-05-06T02:17:08.943Z,1019.07
2018-05-06T02:18:08.945Z,1019.04
2018-05-06T02:19:08.938Z,1019.02
2018-05-06T02:20:08.934Z,1019.01
2018-05-06T02:21:08.928Z,1018.94
2018-05-06T02:22:08.918Z,1018.94
2018-05-06T02:23:08.913Z,1018.96
2018-05-06T02:24:08.910Z,1018.97
2018-05-06T02:25:08.904Z,1018.96
2018-05-06T02:26:08.903Z,1018.99
2018-05-06T02:27:08.899Z,1018.96
2018-05-06T02:28:08.889Z,1018.99
2018-05-06T02:29:08.884Z,1018.99
2018-05-06T02:30:08.884Z,1019.02
2018-05-06T02:31:08.878Z,1018.96
2018-05-06T02:32:08.873Z,1019.00
2018-05-06T02:33:08.866Z,1018.93
2018-05-06T02:34:08.858Z,1018.94
2018-05-06T02:35:08.857Z,1018.96
2018-05-06T02:36:08.848Z,1018.93
2018-05-06T02:37:08.843Z,1018.93
2018-05-06T02:38:08.844Z,1018.91
2018-05-06T02:39:08.851Z,1018.97
2018-05-06T02:40:08.836Z,1018.95
2018-05-06T02:41:08.830Z,1018.87
2018-05-06T02:42:08.818Z,1018.94
2018-05-06T02:43:08.812Z,1018.90
2018-05-06T02:44:08.811Z,1018.89
2018-05-06T02:45:08.807Z,1018.89
2018-05-06T02:46:08.800Z,1018.91
2018-05-06T02:47:08.791Z,1018.93
2018-05-06T02:48:08.786Z,1018.93
2018-05-06T02:49:08.780Z,1018.94
2018-05-06T02:50:08.787Z,1018.91
2018-05-06T02:51:08.774Z,1018.92
2018-05-06T02:52:08.774Z,1018.94
2018-05-06T02:53:08.770Z,1018.98
2018-05-06T02:54:08.755Z,1018.91
2018-05-06T02:55:08.752Z,1018.94
2018-05-06T02:56:08.745Z,1018.93
2018-05-06T02:57:08.739Z,1018.93
2018-05-06T02:58:08.738Z,1018.89
2018-05-06T02:59:08.734Z,1018.87
2018-05-06T03:00:08.724Z,1018.89
2018-05-06T03:01:08.718Z,1018.91
2018-05-06T03:02:08.718Z,1018.87
2018-05-06T03:03:08.718Z,1018.89
2018-05-06T03:04:08.708Z,1018.89
2018-05-06T03:05:08.702Z,1018.92
2018-05-06T03:06:08.692Z,1018.87
2018-05-06T03:07:08.687Z,1018.92
2018-05-06T03:08:08.681Z,1018.89
2018-05-06T03:09:08.677Z,1018.90
2018-05-06T03:10:08.677Z,1018.92
2018-05-06T03:11:08.677Z,1018.94
2018-05-06T03:12:08.665Z,1018.97
2018-05-06T03:13:08.661Z,1018.96
2018-05-06T03:14:08.649Z,1018.98
2018-05-06T03:15:08.644Z,1018.98
2018-05-06T03:16:08.645Z,1018.94
2018-05-06T03:17:08.637Z,1019.01
2018-05-06T03:18:08.628Z,1018.97
2018-05-06T03:19:08.622Z,1019.00
2018-05-06T03:20:08.619Z,1019.00
2018-05-06T03:21:08.612Z,1018.98
2018-05-06T03:22:08.612Z,1018.96
2018-05-06T03:23:08.609Z,1018.96
2018-05-06T03:24:08.603Z,1018.91
2018-05-06T03:25:08.595Z,1018.91
2018-05-06T03:26:08.594Z,1018.94
2018-05-06T03:27:08.581Z,1018.88
2018-05-06T03:28:08.575Z,1018.95
2018-05-06T03:29:08.568Z,1018.92
2018-05-06T03:30:08.571Z,1018.95
2018-05-06T03:31:08.563Z,1018.92
2018-05-06T03:32:08.552Z,1018.91
2018-05-06T03:33:08.546Z,1018.94
2018-05-06T03:34:08.545Z,1018.94
2018-05-06T03:35:08.541Z,1018.93
2018-05-06T03:36:08.536Z,1018.96
2018-05-06T03:37:08.528Z,1018.94
2018-05-06T03:38:08.520Z,1018.94
2018-05-06T03:39:08.513Z,1018.94
2018-05-06T03:40:08.511Z,1018.94
2018-05-06T03:41:08.503Z,1019.00
2018-05-06T03:42:08.502Z,1018.99
2018-05-06T03:43:08.496Z,1019.00
2018-05-06T03:44:08.490Z,1019.01
2018-05-06T03:45:08.484Z,1018.96
2018-05-06T03:46:08.478Z,1019.03
2018-05-06T03:47:08.471Z,1018.97
2018-05-06T03:48:08.466Z,1018.94
2018-05-06T03:49:08.460Z,1018.97
2018-05-06T03:50:08.451Z,1018.93
2018-05-06T03:51:08.448Z,1018.97
2018-05-06T03:52:08.440Z,1018.99
2018-05-06T03:53:08.433Z,1018.95
2018-05-06T03:54:08.437Z,1018.94
2018-05-06T03:55:08.428Z,1018.98
2018-05-06T03:56:08.422Z,1019.02
2018-05-06T03:57:08.416Z,1019.01
2018-05-06T03:58:08.405Z,1019.03
2018-05-06T03:59:08.399Z,1019.01
2018-05-06T04:00:08.394Z,1019.03
2018-05-06T04:01:08.390Z,1019.04
2018-05-06T04:02:08.387Z,1019.03
2018-05-06T04:03:08.384Z,1018.99
2018-05-06T04:04:08.372Z,1018.99
2018-05-06T04:05:08.364Z,1018.98
2018-05-06T04:06:08.363Z,1019.03
2018-05-06T04:07:08.358Z,1019.04
2018-05-06T04:08:08.352Z,1019.02
2018-05-06T04:09:08.345Z,1019.01
2018-05-06T04:10:08.336Z,1019.08
2018-05-06T04:11:08.330Z,1019.05
2018-05-06T04:12:08.324Z,1019.02
2018-05-06T04:13:08.321Z,1019.09
2018-05-06T04:14:08.316Z,1019.04
2018-05-06T04:15:08.311Z,1019.05
2018-05-06T04:16:08.306Z,1019.05
2018-05-06T04:17:08.299Z,1019.05
2018-05-06T04:18:08.291Z,1019.06
2018-05-06T04:19:08.283Z,1019.04
2018-05-06T04:20:08.284Z,1019.04
2018-05-06T04:21:08.328Z,1019.00
2018-05-06T04:22:08.265Z,1019.05
2018-05-06T04:23:08.260Z,1019.03
2018-05-06T04:24:08.254Z,1019.01
2018-05-06T04:25:08.247Z,1019.03
2018-05-06T04:26:08.246Z,1019.00
2018-05-06T04:27:08.241Z,1019.04
2018-05-06T04:28:08.235Z,1019.01
2018-05-06T04:29:08.228Z,1018.97
2018-05-06T04:30:08.218Z,1018.99
2018-05-06T04:31:08.216Z,1018.99
2018-05-06T04:32:08.210Z,1019.05
2018-05-06T04:33:08.200Z,1019.05
2018-05-06T04:34:08.201Z,1019.05
2018-05-06T04:35:08.195Z,1019.12
2018-05-06T04:36:08.187Z,1019.17
2018-05-06T04:37:08.182Z,1019.26
2018-05-06T04:38:08.178Z,1019.25
2018-05-06T04:39:08.173Z,1019.30
2018-05-06T04:40:08.166Z,1019.32
2018-05-06T04:41:08.161Z,1019.33
2018-05-06T04:42:08.152Z,1019.46
2018-05-06T04:43:08.147Z,1019.49
2018-05-06T04:44:08.227Z,1019.50
2018-05-06T04:45:08.136Z,1019.56
2018-05-06T04:46:08.138Z,1019.61
2018-05-06T04:47:08.132Z,1019.67
2018-05-06T04:48:08.130Z,1019.68
2018-05-06T04:49:08.124Z,1019.72
2018-05-06T04:50:08.116Z,1019.76
2018-05-06T04:51:08.112Z,1019.82
2018-05-06T04:52:08.114Z,1019.82
2018-05-06T04:53:08.110Z,1019.84
2018-05-06T04:54:08.102Z,1019.84
2018-05-06T04:55:08.099Z,1019.92
2018-05-06T04:56:08.096Z,1019.93
2018-05-06T04:57:08.092Z,1019.97
2018-05-06T04:58:08.093Z,1019.94
2018-05-06T04:59:08.091Z,1020.00
2018-05-06T05:00:08.092Z,1019.98
2018-05-06T05:01:08.088Z,1020.01
2018-05-06T05:02:08.082Z,1020.03
2018-05-06T05:03:08.078Z,1020.08
2018-05-06T05:04:08.080Z,1020.08
2018-05-06T05:05:08.075Z,1020.15
2018-05-06T05:06:08.078Z,1020.13
2018-05-06T05:07:08.077Z,1020.10
2018-05-06T05:08:08.072Z,1020.15
2018-05-06T05:09:08.070Z,1020.21
2018-05-06T05:10:08.074Z,1020.24
2018-05-06T05:11:08.073Z,1020.25
2018-05-06T05:12:08.075Z,1020.22
2018-05-06T05:13:08.073Z,1020.25
2018-05-06T05:14:08.070Z,1020.29
2018-05-06T05:15:08.067Z,1020.28
2018-05-06T05:16:08.069Z,1020.34
2018-05-06T05:17:08.068Z,1020.39
2018-05-06T05:18:08.073Z,1020.38
2018-05-06T05:19:08.075Z,1020.44
2018-05-06T05:20:08.076Z,1020.47
2018-05-06T05:21:08.074Z,1020.49
2018-05-06T05:22:08.071Z,1020.53
2018-05-06T05:23:08.073Z,1020.60
2018-05-06T05:24:08.078Z,1020.61
2018-05-06T05:25:08.081Z,1020.63
2018-05-06T05:26:08.076Z,1020.64
2018-05-06T05:27:08.078Z,1020.70
2018-05-06T05:28:08.079Z,1020.63
2018-05-06T05:29:08.080Z,1020.72
2018-05-06T05:30:08.088Z,1020.70
2018-05-06T05:31:08.091Z,1020.70
2018-05-06T05:32:08.094Z,1020.71
2018-05-06T05:33:08.095Z,1020.72
2018-05-06T05:34:08.094Z,1020.68
2018-05-06T05:35:08.096Z,1020.74
2018-05-06T05:36:08.099Z,1020.76
2018-05-06T05:37:08.101Z,1020.80
2018-05-06T05:38:08.109Z,1020.75
2018-05-06T05:39:08.112Z,1020.74
2018-05-06T05:40:08.111Z,1020.80
2018-05-06T05:41:08.114Z,1020.82
2018-05-06T05:42:08.123Z,1020.84
2018-05-06T05:43:08.128Z,1020.87
2018-05-06T05:44:08.131Z,1020.83
2018-05-06T05:45:08.136Z,1020.85
2018-05-06T05:46:08.135Z,1020.84
2018-05-06T05:47:08.139Z,1020.87
2018-05-06T05:48:08.143Z,1020.89
2018-05-06T05:49:08.148Z,1020.89
2018-05-06T05:50:08.158Z,1020.92
2018-05-06T05:51:08.163Z,1020.96
2018-05-06T05:52:08.166Z,1021.00
2018-05-06T05:53:08.170Z,1021.01
2018-05-06T05:54:08.171Z,1021.04
2018-05-06T05:55:08.176Z,1021.05
2018-05-06T05:56:08.186Z,1021.07
2018-05-06T05:57:08.191Z,1021.13
2018-05-06T05:58:08.192Z,1021.17
2018-05-06T05:59:08.201Z,1021.14
2018-05-06T06:00:08.204Z,1021.14
2018-05-06T06:01:08.208Z,1021.16
2018-05-06T06:02:08.220Z,1021.21
2018-05-06T06:03:08.226Z,1021.22
2018-05-06T06:04:08.235Z,1021.27
2018-05-06T06:05:08.236Z,1021.24
2018-05-06T06:06:08.239Z,1021.23
2018-05-06T06:07:08.247Z,1021.26
2018-05-06T06:08:08.252Z,1021.26
2018-05-06T06:09:08.262Z,1021.32
2018-05-06T06:10:08.270Z,1021.30
2018-05-06T06:11:08.277Z,1021.31
2018-05-06T06:12:08.279Z,1021.36
2018-05-06T06:13:08.286Z,1021.35
2018-05-06T06:14:08.300Z,1021.34
2018-05-06T06:15:08.305Z,1021.37
2018-05-06T06:16:08.311Z,1021.40
2018-05-06T06:17:08.321Z,1021.41
2018-05-06T06:18:08.321Z,1021.45
2018-05-06T06:19:08.329Z,1021.45
2018-05-06T06:20:08.337Z,1021.47
2018-05-06T06:21:08.344Z,1021.49
2018-05-06T06:22:08.356Z,1021.50
2018-05-06T06:23:08.364Z,1021.46
2018-05-06T06:24:08.372Z,1021.50
2018-05-06T06:25:08.380Z,1021.47
2018-05-06T06:26:08.384Z,1021.47
2018-05-06T06:27:08.392Z,1021.47
2018-05-06T06:28:08.405Z,1021.51
2018-05-06T06:29:08.415Z,1021.46
2018-05-06T06:30:08.415Z,1021.52
2018-05-06T06:31:08.424Z,1021.48
2018-05-06T06:32:08.432Z,1021.52
2018-05-06T06:33:08.440Z,1021.54
2018-05-06T06:34:08.453Z,1021.50
2018-05-06T06:35:08.463Z,1021.46
2018-05-06T06:36:08.472Z,1021.49
2018-05-06T06:37:08.479Z,1021.54
2018-05-06T06:38:08.484Z,1021.51
2018-05-06T06:39:08.494Z,1021.50
2018-05-06T06:40:08.503Z,1021.55
2018-05-06T06:41:08.515Z,1021.54
2018-05-06T06:42:08.527Z,1021.55
2018-05-06T06:43:08.538Z,1021.57
2018-05-06T06:44:08.541Z,1021.55
2018-05-06T06:45:08.550Z,1021.58
2018-05-06T06:46:08.570Z,1021.64
2018-05-06T06:47:08.575Z,1021.67
2018-05-06T06:48:08.610Z,1021.65
2018-05-06T06:49:08.593Z,1021.66
2018-05-06T06:50:08.639Z,1021.70
2018-05-06T06:51:08.608Z,1021.73
2018-05-06T06:52:08.621Z,1021.71
2018-05-06T06:53:08.628Z,1021.75
2018-05-06T06:54:08.646Z,1021.77
2018-05-06T06:55:08.659Z,1021.75
2018-05-06T06:56:08.666Z,1021.80
2018-05-06T06:57:08.677Z,1021.84
2018-05-06T06:58:08.684Z,1021.81
2018-05-06T06:59:08.699Z,1021.80
2018-05-06T07:00:08.711Z,1021.85
2018-05-06T07:01:08.724Z,1021.88
2018-05-06T07:02:08.728Z,1021.87
2018-05-06T07:03:08.741Z,1021.93
2018-05-06T07:04:08.752Z,1021.91
2018-05-06T07:05:08.762Z,1021.91
2018-05-06T07:06:08.782Z,1021.95
2018-05-06T07:07:08.791Z,1021.93
2018-05-06T07:08:08.835Z,1021.90
2018-05-06T07:09:08.816Z,1021.88
2018-05-06T07:10:08.823Z,1021.89
2018-05-06T07:11:08.836Z,1021.93
2018-05-06T07:12:08.848Z,1021.96
2018-05-06T07:13:08.860Z,1021.92
2018-05-06T07:14:08.877Z,1021.90
2018-05-06T07:15:08.890Z,1021.88
2018-05-06T07:16:08.909Z,1021.88
2018-05-06T07:17:08.912Z,1021.91
2018-05-06T07:18:08.930Z,1021.87
2018-05-06T07:19:08.945Z,1021.90
2018-05-06T07:20:08.958Z,1021.88
2018-05-06T07:21:08.969Z,1021.89
2018-05-06T07:22:08.980Z,1021.83
2018-05-06T07:23:08.992Z,1021.85
2018-05-06T07:24:09.006Z,1021.87
2018-05-06T07:25:09.019Z,1021.85
2018-05-06T07:26:09.039Z,1021.89
2018-05-06T07:27:09.051Z,1021.90
2018-05-06T07:28:09.066Z,1021.90
2018-05-06T07:29:09.080Z,1021.86
2018-05-06T07:30:09.091Z,1021.90
2018-05-06T07:31:09.108Z,1021.86
2018-05-06T07:32:09.123Z,1021.89
2018-05-06T07:33:09.136Z,1021.92
2018-05-06T07:34:09.147Z,1021.91
2018-05-06T07:35:09.161Z,1021.90
2018-05-06T07:36:09.177Z,1021.90
2018-05-06T07:37:09.192Z,1021.92
2018-05-06T07:38:09.211Z,1021.91
2018-05-06T07:39:09.225Z,1021.96
2018-05-06T07:40:09.241Z,1021.93
2018-05-06T07:41:09.254Z,1021.90
2018-05-06T07:42:09.265Z,1021.89
2018-05-06T07:43:09.280Z,1021.89
2018-05-06T07:44:09.296Z,1021.87
2018-05-06T07:45:09.320Z,1020.96
2018-05-06T07:46:09.330Z,1020.96
2018-05-06T07:47:09.345Z,1020.98
2018-05-06T07:48:09.357Z,1021.05
2018-05-06T07:49:09.372Z,1021.07
2018-05-06T07:50:09.391Z,1021.04
2018-05-06T07:51:09.415Z,1021.02
2018-05-06T07:52:09.425Z,1021.05
2018-05-06T07:53:09.441Z,1021.05
2018-05-06T07:54:09.452Z,1021.07
2018-05-06T07:55:09.469Z,1021.06
2018-05-06T07:56:09.487Z,1021.04
2018-05-06T07:57:09.500Z,1021.03
2018-05-06T07:58:09.523Z,1021.05
2018-05-06T07:59:09.537Z,1021.03
2018-05-06T08:00:09.553Z,1021.03
2018-05-06T08:01:09.569Z,1021.04
2018-05-06T08:02:09.581Z,1021.07
2018-05-06T08:03:09.598Z,1021.05
2018-05-06T08:04:09.620Z,1021.06
2018-05-06T08:05:09.635Z,1021.06
2018-05-06T08:06:09.648Z,1021.10
2018-05-06T08:07:09.666Z,1021.06
2018-05-06T08:08:09.683Z,1021.07
2018-05-06T08:09:09.699Z,1021.10
2018-05-06T08:10:09.722Z,1021.03
2018-05-06T08:11:09.738Z,1021.11
2018-05-06T08:12:09.755Z,1021.08
2018-05-06T08:13:09.772Z,1021.03
2018-05-06T08:14:09.788Z,1021.02
2018-05-06T08:15:09.803Z,1021.08
2018-05-06T08:16:09.820Z,1021.10
2018-05-06T08:17:09.836Z,1021.10
2018-05-06T08:18:09.860Z,1021.09
2018-05-06T08:19:09.877Z,1021.16
2018-05-06T08:20:09.889Z,1021.21
2018-05-06T08:21:09.907Z,1021.24
2018-05-06T08:22:09.928Z,1021.22
2018-05-06T08:23:09.993Z,1021.23
2018-05-06T08:24:09.967Z,1021.23
2018-05-06T08:25:09.982Z,1021.26
2018-05-06T08:26:09.995Z,1021.33
2018-05-06T08:27:10.013Z,1021.33
2018-05-06T08:28:10.032Z,1021.39
2018-05-06T08:29:10.049Z,1021.47
2018-05-06T08:30:10.073Z,1021.47
2018-05-06T08:31:10.096Z,1021.50
2018-05-06T08:32:10.112Z,1021.63
2018-05-06T08:33:10.130Z,1021.69
2018-05-06T08:34:10.144Z,1021.73
2018-05-06T08:35:10.164Z,1021.83
2018-05-06T08:36:10.187Z,1021.83
2018-05-06T08:37:10.206Z,1021.90
2018-05-06T08:38:10.220Z,1022.02
2018-05-06T08:39:10.239Z,1022.09
2018-05-06T08:40:10.259Z,1022.18
2018-05-06T08:41:10.279Z,1022.23
2018-05-06T08:42:10.300Z,1022.19
2018-05-06T08:43:10.320Z,1022.08
2018-05-06T08:44:10.340Z,1022.22
2018-05-06T08:45:10.358Z,1022.31
2018-05-06T08:46:10.374Z,1022.33
2018-05-06T08:47:10.401Z,1022.27
2018-05-06T08:48:10.413Z,1022.34
2018-05-06T08:49:10.430Z,1022.39
2018-05-06T08:50:10.455Z,1022.42
2018-05-06T08:51:10.474Z,1022.39
2018-05-06T08:52:10.491Z,1022.39
2018-05-06T08:53:10.507Z,1022.32
2018-05-06T08:54:10.532Z,1022.28
2018-05-06T08:55:10.552Z,1022.23
2018-05-06T08:56:10.571Z,1022.13
2018-05-06T08:57:10.589Z,1022.04
2018-05-06T08:58:10.605Z,1022.02
2018-05-06T08:59:10.626Z,1022.00
2018-05-06T09:00:10.645Z,1021.81
2018-05-06T09:01:10.667Z,1021.84
2018-05-06T09:02:10.689Z,1021.87
2018-05-06T09:03:10.710Z,1021.80
2018-05-06T09:04:10.731Z,1021.71
2018-05-06T09:05:10.752Z,1021.67
2018-05-06T09:06:10.766Z,1021.70
2018-05-06T09:07:10.786Z,1021.63
2018-05-06T09:08:10.822Z,1021.68
2018-05-06T09:09:10.834Z,1021.68
2018-05-06T09:10:10.848Z,1021.65
2018-05-06T09:11:10.883Z,1021.67
2018-05-06T09:12:10.887Z,1021.62
2018-05-06T09:13:10.911Z,1021.59
2018-05-06T09:14:10.932Z,1021.52
2018-05-06T09:15:10.959Z,1021.47
2018-05-06T09:16:10.974Z,1021.41
2018-05-06T09:17:10.995Z,1021.41
2018-05-06T09:18:11.011Z,1021.33
2018-05-06T09:19:11.033Z,1021.23
2018-05-06T09:20:11.054Z,1021.08
2018-05-06T09:21:11.074Z,1020.97
2018-05-06T09:22:11.100Z,1020.94
2018-05-06T09:23:11.121Z,1020.89
2018-05-06T09:24:11.144Z,1020.88
2018-05-06T09:25:11.160Z,1020.86
2018-05-06T09:26:11.187Z,1020.84
2018-05-06T09:27:11.209Z,1020.84
2018-05-06T09:28:11.231Z,1020.86
2018-05-06T09:29:11.253Z,1020.81
2018-05-06T09:30:11.270Z,1020.79
2018-05-06T09:31:11.293Z,1020.84
2018-05-06T09:32:11.316Z,1020.78
2018-05-06T09:33:11.338Z,1020.78
2018-05-06T09:34:11.366Z,1020.75
2018-05-06T09:35:11.388Z,1020.69
2018-05-06T09:36:11.412Z,1020.67
2018-05-06T09:37:11.432Z,1020.69
2018-05-06T09:38:11.452Z,1020.70
2018-05-06T09:39:11.473Z,1020.68
2018-05-06T09:40:11.502Z,1020.68
2018-05-06T09:41:11.522Z,1020.67
2018-05-06T09:42:11.561Z,1020.62
2018-05-06T09:43:11.561Z,1020.64
2018-05-06T09:44:11.589Z,1020.67
2018-05-06T09:45:11.603Z,1020.61
2018-05-06T09:46:11.629Z,1020.63
2018-05-06T09:47:11.651Z,1020.59
2018-05-06T09:48:11.696Z,1020.60
2018-05-06T09:49:11.692Z,1020.54
2018-05-06T09:50:11.708Z,1020.59
2018-05-06T09:51:11.732Z,1020.52
2018-05-06T09:52:11.751Z,1020.51
2018-05-06T09:53:11.773Z,1020.55
2018-05-06T09:54:11.795Z,1020.52
2018-05-06T09:55:11.815Z,1020.50
2018-05-06T09:56:11.836Z,1020.48
2018-05-06T09:57:11.851Z,1020.45
2018-05-06T09:58:11.880Z,1020.47
2018-05-06T09:59:11.895Z,1020.43
2018-05-06T10:00:11.914Z,1020.44
2018-05-06T10:01:11.933Z,1020.42
2018-05-06T10:02:11.948Z,1020.39
2018-05-06T10:03:11.970Z,1020.35
2018-05-06T10:04:11.989Z,1020.36
2018-05-06T10:05:12.010Z,1020.33
2018-05-06T10:06:12.030Z,1020.30
2018-05-06T10:07:12.048Z,1020.31
2018-05-06T10:08:12.139Z,1020.29
2018-05-06T10:09:12.088Z,1020.29
2018-05-06T10:10:12.102Z,1020.25
2018-05-06T10:11:12.121Z,1020.24
2018-05-06T10:12:12.148Z,1020.23
2018-05-06T10:13:12.164Z,1020.21
2018-05-06T10:14:12.178Z,1020.22
2018-05-06T10:15:12.199Z,1020.20
2018-05-06T10:16:12.217Z,1020.23
2018-05-06T10:17:12.239Z,1020.16
2018-05-06T10:18:12.260Z,1020.16
2018-05-06T10:19:12.278Z,1020.09
2018-05-06T10:20:12.299Z,1020.14
2018-05-06T10:21:12.319Z,1020.13
2018-05-06T10:22:12.335Z,1020.04
2018-05-06T10:23:12.349Z,1020.01
2018-05-06T10:24:12.368Z,1020.00
2018-05-06T10:25:12.386Z,1020.02
2018-05-06T10:26:12.444Z,1019.98
2018-05-06T10:27:12.428Z,1019.96
2018-05-06T10:28:12.494Z,1019.96
2018-05-06T10:29:12.461Z,1019.91
2018-05-06T10:30:12.484Z,1019.95
2018-05-06T10:31:12.503Z,1019.94
2018-05-06T10:32:12.523Z,1019.89
2018-05-06T10:33:12.541Z,1019.86
2018-05-06T10:34:12.556Z,1019.88
2018-05-06T10:35:12.576Z,1019.88
2018-05-06T10:36:12.596Z,1019.87
2018-05-06T10:37:12.614Z,1019.90
2018-05-06T10:38:12.639Z,1019.84
2018-05-06T10:39:12.661Z,1019.81
2018-05-06T10:40:12.678Z,1019.79
2018-05-06T10:41:12.697Z,1019.79
2018-05-06T10:42:12.713Z,1019.78
2018-05-06T10:43:12.732Z,1019.74
2018-05-06T10:44:12.803Z,1019.69
2018-05-06T10:45:12.776Z,1019.74
2018-05-06T10:46:12.791Z,1019.75
2018-05-06T10:47:12.891Z,1019.71
2018-05-06T10:48:12.831Z,1019.75
2018-05-06T10:49:12.874Z,1019.67
2018-05-06T10:50:12.877Z,1019.67
2018-05-06T10:51:12.892Z,1019.69
2018-05-06T10:52:12.912Z,1019.60
2018-05-06T10:53:12.930Z,1019.64
2018-05-06T10:54:12.945Z,1019.65
2018-05-06T10:55:12.970Z,1019.62
2018-05-06T10:56:12.984Z,1019.60
2018-05-06T10:57:13.003Z,1019.64
2018-05-06T10:58:13.026Z,1019.64
2018-05-06T10:59:13.048Z,1019.65
2018-05-06T11:00:13.060Z,1019.65
2018-05-06T11:01:13.079Z,1019.68
2018-05-06T11:02:13.103Z,1019.67
2018-05-06T11:03:13.122Z,1019.66
2018-05-06T11:04:13.144Z,1019.63
2018-05-06T11:05:13.161Z,1019.65
2018-05-06T11:06:13.177Z,1019.61
2018-05-06T11:07:13.196Z,1019.63
2018-05-06T11:08:13.213Z,1019.60
2018-05-06T11:09:13.233Z,1019.61
2018-05-06T11:10:13.274Z,1019.57
2018-05-06T11:11:13.276Z,1019.57
2018-05-06T11:12:13.295Z,1019.49
2018-05-06T11:13:13.313Z,1019.43
2018-05-06T11:14:13.328Z,1019.45
2018-05-06T11:15:13.348Z,1019.40
2018-05-06T11:16:13.372Z,1019.31
2018-05-06T11:17:13.389Z,1019.23
2018-05-06T11:18:13.405Z,1019.15
2018-05-06T11:19:13.423Z,1019.02
2018-05-06T11:20:13.440Z,1019.04
2018-05-06T11:21:13.459Z,1018.99
2018-05-06T11:22:13.479Z,1018.87
2018-05-06T11:23:13.495Z,1018.86
2018-05-06T11:24:13.512Z,1018.80
2018-05-06T11:25:13.528Z,1018.80
2018-05-06T11:26:13.566Z,1018.81
2018-05-06T11:27:13.558Z,1018.75
2018-05-06T11:28:13.570Z,1018.73
2018-05-06T11:29:13.589Z,1018.65
2018-05-06T11:30:13.603Z,1018.63
2018-05-06T11:31:13.618Z,1018.65
2018-05-06T11:32:13.629Z,1018.69
2018-05-06T11:33:13.639Z,1018.64
2018-05-06T11:34:13.660Z,1018.61
2018-05-06T11:35:13.670Z,1018.55
2018-05-06T11:36:13.683Z,1018.55
2018-05-06T11:37:13.694Z,1018.57
2018-05-06T11:38:13.701Z,1018.55
2018-05-06T11:39:13.715Z,1018.51
2018-05-06T11:40:13.728Z,1018.49
2018-05-06T11:41:13.734Z,1018.50
2018-05-06T11:42:13.751Z,1018.39
2018-05-06T11:43:13.760Z,1018.36
2018-05-06T11:44:13.773Z,1018.26
2018-05-06T11:45:13.780Z,1018.48
2018-05-06T11:46:13.786Z,1018.42
2018-05-06T11:47:13.797Z,1018.44
2018-05-06T11:48:13.809Z,1018.42
2018-05-06T11:49:13.817Z,1018.42
2018-05-06T11:50:13.821Z,1018.37
2018-05-06T11:51:13.830Z,1018.37
2018-05-06T11:52:13.839Z,1018.45
2018-05-06T11:53:13.847Z,1018.37
2018-05-06T11:54:13.870Z,1018.33
2018-05-06T11:55:13.875Z,1018.35
2018-05-06T11:56:13.963Z,1018.40
2018-05-06T11:57:13.884Z,1018.39
2018-05-06T11:58:13.887Z,1018.38
2018-05-06T11:59:13.894Z,1018.31
2018-05-06T12:00:13.903Z,1018.36
2018-05-06T12:01:13.910Z,1018.38
2018-05-06T12:02:13.991Z,1018.41
2018-05-06T12:03:13.929Z,1018.33
2018-05-06T12:04:13.933Z,1018.30
2018-05-06T12:05:13.938Z,1018.35